createdAt,value
2023-05-21T00:09:12.955Z,102140.28
2023-05-21T00:19:34.599Z,102135.94
2023-05-21T00:29:56.387Z,102137.56
2023-05-21T00:40:18.776Z,102136.03
2023-05-21T00:50:41.342Z,102118.69
2023-05-21T01:01:03.852Z,102107.38
2023-05-21T01:11:31.670Z,102098.78
2023-05-21T01:21:56.370Z,102089.56
2023-05-21T01:32:26.644Z,102085.50
2023-05-21T01:42:48.155Z,102078.66
2023-05-21T01:53:09.629Z,102074.72
2023-05-21T02:03:31.537Z,102086.91
2023-05-21T02:13:54.521Z,102076.72
2023-05-21T02:24:16.747Z,102067.38
2023-05-21T02:34:42.276Z,102071.94
2023-05-21T02:45:03.828Z,102069.16
2023-05-21T02:55:30.695Z,102058.03
2023-05-21T03:05:53.011Z,102061.66
2023-05-21T03:16:14.496Z,102055.84
2023-05-21T03:26:35.933Z,102058.63
2023-05-21T03:36:57.338Z,102044.25
2023-05-21T03:47:18.797Z,102034.91
2023-05-21T03:57:41.210Z,102035.84
2023-05-21T04:08:02.616Z,102050.88
2023-05-21T04:18:25.874Z,102052.88
2023-05-21T04:28:47.850Z,102067.94
2023-05-21T04:39:09.301Z,102062.78
2023-05-21T04:49:30.872Z,102067.03
2023-05-21T04:59:52.743Z,102055.63
2023-05-21T05:10:14.323Z,102050.25
2023-05-21T05:20:35.854Z,102052.75
2023-05-21T05:30:57.273Z,102028.16
2023-05-21T05:41:18.669Z,102028.09
2023-05-21T05:51:40.254Z,102015.75
2023-05-21T06:02:01.808Z,102027.72
2023-05-21T06:12:23.245Z,102010.25
2023-05-21T06:22:44.709Z,102012.66
2023-05-21T06:33:06.275Z,102010.75
2023-05-21T06:43:28.747Z,102018.38
2023-05-21T06:53:50.180Z,102016.31
2023-05-21T07:04:12.159Z,102012.19
2023-05-21T07:14:33.664Z,102008.00
2023-05-21T07:24:55.055Z,102013.75
2023-05-21T07:35:16.473Z,102000.28
2023-05-21T07:45:38.064Z,101990.41
2023-05-21T07:56:00.049Z,101970.66
2023-05-21T08:06:22.358Z,101965.06
2023-05-21T08:16:45.006Z,101952.41
2023-05-21T08:27:07.704Z,101955.97
2023-05-21T08:37:29.269Z,101961.53
2023-05-21T08:47:55.427Z,101972.13
2023-05-21T08:58:16.879Z,101964.88
2023-05-21T09:08:41.700Z,101968.50
2023-05-21T09:19:04.777Z,101956.72
2023-05-21T09:29:26.656Z,101940.97
2023-05-21T09:39:48.651Z,101934.91
2023-05-21T09:50:14.521Z,101936.06
2023-05-21T10:00:36.230Z,101925.53
2023-05-21T10:10:57.903Z,101913.13
2023-05-21T10:21:19.545Z,101908.19
2023-05-21T10:31:43.790Z,101890.28
2023-05-21T10:42:14.346Z,101882.34
2023-05-21T10:52:54.646Z,101875.31
2023-05-21T11:03:16.785Z,101879.94
2023-05-21T11:13:48.753Z,101869.59
2023-05-21T11:24:18.280Z,101851.09
2023-05-21T11:34:41.706Z,101837.56
2023-05-21T11:45:04.064Z,101834.97
2023-05-21T11:55:26.063Z,101832.91
2023-05-21T12:05:48.535Z,101811.56
2023-05-21T12:16:10.292Z,101813.19
2023-05-21T12:26:33.157Z,101805.94
2023-05-21T12:36:54.678Z,101795.84
2023-05-21T12:47:16.316Z,101784.59
2023-05-21T12:57:40.759Z,101780.75
2023-05-21T13:08:02.182Z,101781.28
2023-05-21T13:18:23.702Z,101782.03
2023-05-21T13:28:45.241Z,101772.13
2023-05-21T13:39:07.011Z,101767.53
2023-05-21T13:49:28.413Z,101752.19
2023-05-21T13:59:50.815Z,101749.19
2023-05-21T14:10:12.394Z,101737.88
2023-05-21T14:20:34.168Z,101734.56
2023-05-21T14:30:55.747Z,101719.31
2023-05-21T14:41:17.174Z,101716.56
2023-05-21T14:51:38.553Z,101712.72
2023-05-21T15:02:00.255Z,101702.72
2023-05-21T15:12:21.812Z,101693.81
2023-05-21T15:22:43.227Z,101674.50
2023-05-21T15:33:04.655Z,101662.13
2023-05-21T15:43:26.055Z,101664.03
2023-05-21T15:53:47.497Z,101665.75
2023-05-21T16:04:09.147Z,101652.31
2023-05-21T16:14:30.702Z,101659.81
2023-05-21T16:24:52.144Z,101658.91
2023-05-21T16:35:13.652Z,101656.50
2023-05-21T16:45:39.204Z,101665.97
2023-05-21T16:56:00.787Z,101657.09
2023-05-21T17:06:23.323Z,101657.09
2023-05-21T17:16:44.920Z,101654.56
2023-05-21T17:27:06.544Z,101652.19
2023-05-21T17:37:28.661Z,101650.25
2023-05-21T17:47:50.186Z,101641.13
2023-05-21T17:58:11.679Z,101633.88
2023-05-21T18:08:33.087Z,101634.34
2023-05-21T18:18:54.513Z,101633.81
2023-05-21T18:29:15.964Z,101646.38
2023-05-21T18:39:37.447Z,101649.19
2023-05-21T18:49:58.873Z,101655.00
2023-05-21T19:00:20.381Z,101653.44
2023-05-21T19:10:41.838Z,101644.59
2023-05-21T19:21:03.938Z,101651.38
2023-05-21T19:31:25.699Z,101654.69
2023-05-21T19:41:47.210Z,101666.09
2023-05-21T19:52:10.308Z,101670.53
2023-05-21T20:02:31.837Z,101675.78
2023-05-21T20:12:53.244Z,101685.41
2023-05-21T20:23:14.662Z,101672.84
2023-05-21T20:33:40.983Z,101683.38
2023-05-21T20:44:04.775Z,101670.13
2023-05-21T20:54:26.985Z,101669.66
2023-05-21T21:04:49.750Z,101670.53
2023-05-21T21:15:11.192Z,101670.28
2023-05-21T21:25:34.427Z,101680.50
2023-05-21T21:35:56.116Z,101673.47
2023-05-21T21:46:17.835Z,101665.69
2023-05-21T21:56:39.316Z,101664.41
2023-05-21T22:07:01.710Z,101649.19
2023-05-21T22:17:23.368Z,101649.63
2023-05-21T22:27:44.876Z,101640.13
2023-05-21T22:38:06.380Z,101651.22
2023-05-21T22:48:30.541Z,101655.91
2023-05-21T22:58:51.956Z,101651.31
2023-05-21T23:09:13.459Z,101654.41
2023-05-21T23:19:35.206Z,101652.91
2023-05-21T23:29:56.792Z,101654.84
2023-05-21T23:40:18.226Z,101645.38
2023-05-21T23:50:39.800Z,101643.38
